createdAt,value
2023-02-14T00:01:51.488Z,94.63
2023-02-14T00:04:20.173Z,93.32
2023-02-14T00:06:48.888Z,94.39
2023-02-14T00:09:19.181Z,94.24
2023-02-14T00:11:47.715Z,94.81
2023-02-14T00:14:34.878Z,94.29
2023-02-14T00:17:04.851Z,94.03
2023-02-14T00:19:34.711Z,94.90
2023-02-14T00:22:03.702Z,94.25
2023-02-14T00:24:33.138Z,94.77
2023-02-14T00:27:01.730Z,94.72
2023-02-14T00:29:32.159Z,94.70
2023-02-14T00:32:00.865Z,94.24
2023-02-14T00:34:30.666Z,94.15
2023-02-14T00:37:00.678Z,94.53
2023-02-14T00:39:29.153Z,94.89
2023-02-14T00:41:57.638Z,94.38
2023-02-14T00:44:26.250Z,94.18
2023-02-14T00:46:54.707Z,94.59
2023-02-14T00:49:24.880Z,94.18
2023-02-14T00:51:54.670Z,95.04
2023-02-14T00:54:24.362Z,94.76
2023-02-14T00:56:52.818Z,93.94
2023-02-14T00:59:21.249Z,94.11
2023-02-14T01:01:49.777Z,94.52
2023-02-14T01:04:18.281Z,94.66
2023-02-14T01:06:47.529Z,94.10
2023-02-14T01:09:17.421Z,94.55
2023-02-14T01:11:45.886Z,94.72
2023-02-14T01:14:16.680Z,94.49
2023-02-14T01:16:45.180Z,94.52
2023-02-14T01:19:14.464Z,94.53
2023-02-14T01:21:45.414Z,95.33
2023-02-14T01:24:14.169Z,94.50
2023-02-14T01:26:46.106Z,95.44
2023-02-14T01:29:14.547Z,95.18
2023-02-14T01:31:43.063Z,94.31
2023-02-14T01:34:11.651Z,94.84
2023-02-14T01:36:40.912Z,94.26
2023-02-14T01:39:12.470Z,95.35
2023-02-14T01:41:42.542Z,94.30
2023-02-14T01:44:44.279Z,94.63
2023-02-14T01:47:15.044Z,94.36
2023-02-14T01:49:48.411Z,94.99
2023-02-14T01:52:20.791Z,94.64
2023-02-14T01:54:53.281Z,95.16
2023-02-14T01:57:23.879Z,93.99
2023-02-14T01:59:56.488Z,94.84
2023-02-14T02:02:26.418Z,94.60
2023-02-14T02:04:57.492Z,94.46
2023-02-14T02:07:30.391Z,94.59
2023-02-14T02:10:02.640Z,94.38
2023-02-14T02:12:31.621Z,94.57
2023-02-14T02:15:01.021Z,94.35
2023-02-14T02:17:39.334Z,94.06
2023-02-14T02:20:36.950Z,94.15
2023-02-14T02:23:53.007Z,94.16
2023-02-14T02:26:54.700Z,94.59
2023-02-14T02:30:10.914Z,94.25
2023-02-14T02:33:15.441Z,94.91
2023-02-14T02:35:57.340Z,94.58
2023-02-14T02:38:39.918Z,94.34
2023-02-14T02:41:23.874Z,94.00
2023-02-14T02:43:59.450Z,94.65
2023-02-14T02:46:50.806Z,94.27
2023-02-14T02:50:00.315Z,95.09
2023-02-14T02:52:58.295Z,93.91
2023-02-14T02:55:54.860Z,94.50
2023-02-14T02:58:27.298Z,93.94
2023-02-14T03:00:56.485Z,94.23
2023-02-14T03:03:45.433Z,93.83
2023-02-14T03:06:13.904Z,93.99
2023-02-14T03:08:43.698Z,95.06
2023-02-14T03:11:13.940Z,94.87
2023-02-14T03:14:02.574Z,94.24
2023-02-14T03:16:40.512Z,94.60
2023-02-14T03:19:25.011Z,94.65
2023-02-14T03:21:56.705Z,94.19
2023-02-14T03:24:34.570Z,94.28
2023-02-14T03:27:11.639Z,94.23
2023-02-14T03:29:50.568Z,95.01
2023-02-14T03:32:28.474Z,94.50
2023-02-14T03:35:05.273Z,94.51
2023-02-14T03:37:37.841Z,93.28
2023-02-14T03:40:12.098Z,94.35
2023-02-14T03:42:44.717Z,94.80
2023-02-14T03:45:18.303Z,93.98
2023-02-14T03:47:48.421Z,94.79
2023-02-14T03:50:20.774Z,93.94
2023-02-14T03:52:52.882Z,94.08
2023-02-14T03:55:27.886Z,94.20
2023-02-14T03:58:03.023Z,94.53
2023-02-14T04:00:34.035Z,94.56
2023-02-14T04:03:07.205Z,94.00
2023-02-14T04:05:35.826Z,93.75
2023-02-14T04:08:04.339Z,94.37
2023-02-14T04:10:34.322Z,94.02
2023-02-14T04:13:03.103Z,94.01
2023-02-14T04:15:31.708Z,94.08
2023-02-14T04:18:17.606Z,94.90
2023-02-14T04:20:46.117Z,94.30
2023-02-14T04:23:14.560Z,93.99
2023-02-14T04:25:45.629Z,95.35
2023-02-14T04:28:14.588Z,95.40
2023-02-14T04:30:43.267Z,94.99
2023-02-14T04:33:11.825Z,94.06
2023-02-14T04:35:40.338Z,94.19
2023-02-14T04:38:09.558Z,94.59
2023-02-14T04:40:38.038Z,94.96
2023-02-14T04:43:08.467Z,95.23
2023-02-14T04:45:37.141Z,95.14
2023-02-14T04:48:05.559Z,94.68
2023-02-14T04:50:33.973Z,94.34
2023-02-14T04:53:02.400Z,95.35
2023-02-14T04:55:31.216Z,95.21
2023-02-14T04:57:59.702Z,94.25
2023-02-14T05:00:29.506Z,94.88
2023-02-14T05:02:58.005Z,95.02
2023-02-14T05:05:26.527Z,94.46
2023-02-14T05:07:54.987Z,94.35
2023-02-14T05:10:23.518Z,95.15
2023-02-14T05:12:51.996Z,94.14
2023-02-14T05:15:20.471Z,94.73
2023-02-14T05:17:50.248Z,95.38
2023-02-14T05:20:18.978Z,95.16
2023-02-14T05:22:47.415Z,94.61
2023-02-14T05:25:15.833Z,94.48
2023-02-14T05:27:44.314Z,95.41
2023-02-14T05:30:14.453Z,95.02
2023-02-14T05:32:42.954Z,95.27
2023-02-14T05:35:12.806Z,94.11
2023-02-14T05:37:41.248Z,94.91
2023-02-14T05:40:13.374Z,94.22
2023-02-14T05:42:41.849Z,94.03
2023-02-14T05:45:11.344Z,94.16
2023-02-14T05:47:39.832Z,94.15
2023-02-14T05:50:09.236Z,94.64
2023-02-14T05:52:39.613Z,94.12
2023-02-14T05:55:08.517Z,94.08
2023-02-14T05:57:37.080Z,93.96
2023-02-14T06:00:06.813Z,93.99
2023-02-14T06:02:41.760Z,93.86
2023-02-14T06:05:10.256Z,93.94
2023-02-14T06:07:40.070Z,94.20
2023-02-14T06:10:10.367Z,93.82
2023-02-14T06:12:38.850Z,94.51
2023-02-14T06:15:07.943Z,94.79
2023-02-14T06:17:36.367Z,94.38
2023-02-14T06:20:05.293Z,94.08
2023-02-14T06:22:33.923Z,93.77
2023-02-14T06:25:04.026Z,94.23
2023-02-14T06:27:33.475Z,94.34
2023-02-14T06:30:02.438Z,94.43
2023-02-14T06:32:31.924Z,93.87
2023-02-14T06:35:00.410Z,93.90
2023-02-14T06:37:28.855Z,94.08
2023-02-14T06:39:57.323Z,94.13
2023-02-14T06:42:27.200Z,93.36
2023-02-14T06:44:55.705Z,93.62
2023-02-14T06:47:24.247Z,94.01
2023-02-14T06:49:52.675Z,94.18
2023-02-14T06:52:21.157Z,93.28
2023-02-14T06:54:49.591Z,94.46
2023-02-14T06:57:18.059Z,93.27
2023-02-14T06:59:47.930Z,94.33
2023-02-14T07:02:16.515Z,93.73
2023-02-14T07:04:44.987Z,93.31
2023-02-14T07:07:13.481Z,93.20
2023-02-14T07:09:41.970Z,92.95
2023-02-14T07:12:10.732Z,93.73
2023-02-14T07:14:39.258Z,93.62
2023-02-14T07:17:09.071Z,92.89
2023-02-14T07:19:37.534Z,93.66
2023-02-14T07:22:06.042Z,93.63
2023-02-14T07:24:34.507Z,93.16
2023-02-14T07:27:02.966Z,93.57
2023-02-14T07:29:31.380Z,92.11
2023-02-14T07:31:59.900Z,92.47
2023-02-14T07:34:29.864Z,93.22
2023-02-14T07:36:58.282Z,92.08
2023-02-14T07:39:26.738Z,92.90
2023-02-14T07:41:55.137Z,91.97
2023-02-14T07:44:24.507Z,91.97
2023-02-14T07:46:53.077Z,92.25
2023-02-14T07:49:22.297Z,92.53
2023-02-14T07:51:52.170Z,91.40
2023-02-14T07:54:21.294Z,91.37
2023-02-14T07:56:50.595Z,91.19
2023-02-14T07:59:18.994Z,90.84
2023-02-14T08:01:47.624Z,90.69
2023-02-14T08:04:16.288Z,91.39
2023-02-14T08:06:44.954Z,89.91
2023-02-14T08:09:24.603Z,90.63
2023-02-14T08:12:11.695Z,90.74
2023-02-14T08:14:40.143Z,89.20
2023-02-14T08:17:10.068Z,87.91
2023-02-14T08:19:38.584Z,87.50
2023-02-14T08:22:08.138Z,88.07
2023-02-14T08:24:37.959Z,87.92
2023-02-14T08:27:06.474Z,86.38
2023-02-14T08:29:34.878Z,87.50
2023-02-14T08:32:03.472Z,86.78
2023-02-14T08:34:32.057Z,86.45
2023-02-14T08:37:00.572Z,85.41
2023-02-14T08:39:29.050Z,85.50
2023-02-14T08:41:58.862Z,84.23
2023-02-14T08:44:27.572Z,84.30
2023-02-14T08:46:56.151Z,82.64
2023-02-14T08:49:24.713Z,83.31
2023-02-14T08:51:54.580Z,83.58
2023-02-14T08:54:23.074Z,82.45
2023-02-14T08:56:51.612Z,82.83
2023-02-14T08:59:21.520Z,81.71
2023-02-14T09:01:50.005Z,80.88
2023-02-14T09:04:18.546Z,80.40
2023-02-14T09:06:47.011Z,81.15
2023-02-14T09:09:17.376Z,80.63
2023-02-14T09:11:46.131Z,79.87
2023-02-14T09:14:16.297Z,78.38
2023-02-14T09:16:46.086Z,78.02
2023-02-14T09:19:14.806Z,77.02
2023-02-14T09:21:43.293Z,76.84
2023-02-14T09:24:11.920Z,76.81
2023-02-14T09:26:42.154Z,75.35
2023-02-14T09:29:13.237Z,75.08
2023-02-14T09:31:41.777Z,74.56
2023-02-14T09:34:11.774Z,74.72
2023-02-14T09:36:57.741Z,74.10
2023-02-14T09:39:26.272Z,73.59
2023-02-14T09:42:09.542Z,73.65
2023-02-14T09:44:40.966Z,72.53
2023-02-14T09:47:18.018Z,73.01
2023-02-14T09:49:48.699Z,70.93
2023-02-14T09:52:21.232Z,71.38
2023-02-14T09:54:55.279Z,71.63
2023-02-14T09:57:28.988Z,69.98
2023-02-14T10:00:03.914Z,68.84
2023-02-14T10:02:44.663Z,67.87
2023-02-14T10:05:20.482Z,66.33
2023-02-14T10:07:58.538Z,65.26
2023-02-14T10:10:32.608Z,65.33
2023-02-14T10:13:07.619Z,64.28
2023-02-14T10:15:41.022Z,65.06
2023-02-14T10:18:13.500Z,65.22
2023-02-14T10:20:47.223Z,64.35
2023-02-14T10:23:28.379Z,63.87
2023-02-14T10:26:01.653Z,64.71
2023-02-14T10:28:36.015Z,64.12
2023-02-14T10:31:17.617Z,65.04
2023-02-14T10:33:53.242Z,64.50
2023-02-14T10:36:36.106Z,63.35
2023-02-14T10:39:17.852Z,60.54
2023-02-14T10:41:51.746Z,61.87
2023-02-14T10:44:39.508Z,61.93
2023-02-14T10:47:21.100Z,63.08
2023-02-14T10:49:57.455Z,61.39
2023-02-14T10:52:34.372Z,59.53
2023-02-14T10:55:20.270Z,59.99
2023-02-14T10:57:58.794Z,58.50
2023-02-14T11:00:32.270Z,59.24
2023-02-14T11:03:05.465Z,59.22
2023-02-14T11:05:35.818Z,58.85
2023-02-14T11:08:15.200Z,60.11
2023-02-14T11:10:43.824Z,60.44
2023-02-14T11:13:33.476Z,61.00
2023-02-14T11:16:05.252Z,61.66
2023-02-14T11:18:35.986Z,61.87
2023-02-14T11:21:08.254Z,60.54
2023-02-14T11:23:40.860Z,60.28
2023-02-14T11:26:21.774Z,61.42
2023-02-14T11:28:54.979Z,60.39
2023-02-14T11:31:29.387Z,58.40
2023-02-14T11:33:58.988Z,58.37
2023-02-14T11:36:28.225Z,57.84
2023-02-14T11:39:06.304Z,57.62
2023-02-14T11:41:48.659Z,57.64
2023-02-14T11:44:22.639Z,56.54
2023-02-14T11:46:53.900Z,56.28
2023-02-14T11:49:32.024Z,56.11
2023-02-14T11:52:10.293Z,55.20
2023-02-14T11:54:41.764Z,55.77
2023-02-14T11:57:15.682Z,56.32
2023-02-14T11:59:47.941Z,55.45
2023-02-14T12:02:26.120Z,56.87
2023-02-14T12:04:59.232Z,55.41
2023-02-14T12:07:30.964Z,54.63
2023-02-14T12:10:25.585Z,55.38
2023-02-14T12:12:59.080Z,55.13
2023-02-14T12:15:37.735Z,55.57
2023-02-14T12:18:44.590Z,54.03
2023-02-14T12:21:27.089Z,54.41
2023-02-14T12:24:04.342Z,54.58
2023-02-14T12:26:36.023Z,54.93
2023-02-14T12:29:13.820Z,55.83
2023-02-14T12:31:43.154Z,54.17
2023-02-14T12:34:14.014Z,53.94
2023-02-14T12:37:03.126Z,54.02
2023-02-14T12:39:38.939Z,54.09
2023-02-14T12:42:26.748Z,53.10
2023-02-14T12:45:06.107Z,54.80
2023-02-14T12:47:45.262Z,55.65
2023-02-14T12:50:28.896Z,52.76
2023-02-14T12:53:20.409Z,53.81
2023-02-14T12:55:57.000Z,54.13
2023-02-14T12:58:34.116Z,53.93
2023-02-14T13:01:21.727Z,54.93
2023-02-14T13:04:20.878Z,54.03
2023-02-14T13:06:52.697Z,54.92
2023-02-14T13:09:35.067Z,54.24
2023-02-14T13:12:14.175Z,54.40
2023-02-14T13:14:56.575Z,53.15
2023-02-14T13:17:34.829Z,53.51
2023-02-14T13:20:24.808Z,53.38
2023-02-14T13:22:56.378Z,52.13
2023-02-14T13:25:31.638Z,52.16
2023-02-14T13:28:01.459Z,53.14
2023-02-14T13:30:32.064Z,52.08
2023-02-14T13:33:07.252Z,53.25
2023-02-14T13:35:36.213Z,52.51
2023-02-14T13:38:09.440Z,53.00
2023-02-14T13:40:38.621Z,53.85
2023-02-14T13:43:07.059Z,54.52
2023-02-14T13:45:56.511Z,54.03
2023-02-14T13:48:28.557Z,53.63
2023-02-14T13:50:59.968Z,53.96
2023-02-14T13:53:38.500Z,54.14
2023-02-14T13:56:34.798Z,54.18
2023-02-14T13:59:06.863Z,53.75
2023-02-14T14:01:39.646Z,54.91
2023-02-14T14:04:36.920Z,54.22
2023-02-14T14:07:27.101Z,52.84
2023-02-14T14:10:04.194Z,54.15
2023-02-14T14:12:40.902Z,53.34
2023-02-14T14:15:18.390Z,54.93
2023-02-14T14:18:03.362Z,54.75
2023-02-14T14:20:43.173Z,54.86
2023-02-14T14:23:32.016Z,55.58
2023-02-14T14:26:02.253Z,55.91
2023-02-14T14:28:33.189Z,55.48
2023-02-14T14:31:02.055Z,55.54
2023-02-14T14:33:32.468Z,55.10
2023-02-14T14:36:07.668Z,55.88
2023-02-14T14:38:47.459Z,55.28
2023-02-14T14:41:16.080Z,56.64
2023-02-14T14:43:44.881Z,57.61
2023-02-14T14:46:15.806Z,56.39
2023-02-14T14:48:46.842Z,57.81
2023-02-14T14:51:24.822Z,57.95
2023-02-14T14:53:56.962Z,58.43
2023-02-14T14:56:27.836Z,59.74
2023-02-14T14:58:56.465Z,58.00
2023-02-14T15:01:34.284Z,59.08
2023-02-14T15:04:12.337Z,59.25
2023-02-14T15:06:43.447Z,59.54
2023-02-14T15:09:14.252Z,60.22
2023-02-14T15:12:01.804Z,60.67
2023-02-14T15:14:33.648Z,62.27
2023-02-14T15:17:04.378Z,61.76
2023-02-14T15:19:38.516Z,61.96
2023-02-14T15:22:19.402Z,63.37
2023-02-14T15:24:48.380Z,63.23
2023-02-14T15:27:19.132Z,63.32
2023-02-14T15:29:59.193Z,63.14
2023-02-14T15:32:31.430Z,64.99
2023-02-14T15:35:03.061Z,64.50
2023-02-14T15:37:34.217Z,65.15
2023-02-14T15:40:03.235Z,65.68
2023-02-14T15:42:34.315Z,66.23
2023-02-14T15:45:16.584Z,66.54
2023-02-14T15:47:47.825Z,67.28
2023-02-14T15:50:18.964Z,67.79
2023-02-14T15:52:49.452Z,69.06
2023-02-14T15:55:20.992Z,71.00
2023-02-14T15:57:55.968Z,68.27
2023-02-14T16:00:25.589Z,69.61
2023-02-14T16:02:57.383Z,70.52
2023-02-14T16:05:27.906Z,70.74
2023-02-14T16:08:03.486Z,71.41
2023-02-14T16:10:33.481Z,72.00
2023-02-14T16:13:03.472Z,71.38
2023-02-14T16:15:34.081Z,72.06
2023-02-14T16:18:07.894Z,73.28
2023-02-14T16:20:46.889Z,73.68
2023-02-14T16:23:23.189Z,74.59
2023-02-14T16:25:52.234Z,74.75
2023-02-14T16:28:22.308Z,75.24
2023-02-14T16:30:56.258Z,76.33
2023-02-14T16:33:28.269Z,76.78
2023-02-14T16:36:09.212Z,77.29
2023-02-14T16:38:43.819Z,77.67
2023-02-14T16:41:18.489Z,77.98
2023-02-14T16:43:47.748Z,78.51
2023-02-14T16:46:18.569Z,78.47
2023-02-14T16:48:47.118Z,79.17
2023-02-14T16:51:16.588Z,79.25
2023-02-14T16:53:46.717Z,79.63
2023-02-14T16:56:17.932Z,79.77
2023-02-14T16:58:46.868Z,80.26
2023-02-14T17:01:15.435Z,80.85
2023-02-14T17:03:44.579Z,81.47
2023-02-14T17:06:15.922Z,81.97
2023-02-14T17:08:47.800Z,82.70
2023-02-14T17:11:16.794Z,82.71
2023-02-14T17:13:46.941Z,83.45
2023-02-14T17:16:15.795Z,84.27
2023-02-14T17:18:46.196Z,84.10
2023-02-14T17:21:15.889Z,85.54
2023-02-14T17:23:45.778Z,84.93
2023-02-14T17:26:14.316Z,85.15
2023-02-14T17:28:42.720Z,85.61
2023-02-14T17:31:11.820Z,84.90
2023-02-14T17:33:40.251Z,85.75
2023-02-14T17:36:11.999Z,85.84
2023-02-14T17:38:43.396Z,86.57
2023-02-14T17:41:15.197Z,86.49
2023-02-14T17:43:43.941Z,86.80
2023-02-14T17:46:14.247Z,87.18
2023-02-14T17:48:45.325Z,87.13
2023-02-14T17:51:15.132Z,87.69
2023-02-14T17:53:44.078Z,87.61
2023-02-14T17:56:17.684Z,87.94
2023-02-14T17:58:47.749Z,88.04
2023-02-14T18:01:17.992Z,88.63
2023-02-14T18:03:47.271Z,88.29
2023-02-14T18:06:16.585Z,88.10
2023-02-14T18:08:49.307Z,88.55
2023-02-14T18:11:20.999Z,89.18
2023-02-14T18:13:50.548Z,88.58
2023-02-14T18:16:20.309Z,88.54
2023-02-14T18:18:49.275Z,89.35
2023-02-14T18:21:20.878Z,88.63
2023-02-14T18:23:49.471Z,88.75
2023-02-14T18:26:19.646Z,89.13
2023-02-14T18:28:48.922Z,89.39
2023-02-14T18:31:18.592Z,89.54
2023-02-14T18:33:48.776Z,89.86
2023-02-14T18:36:19.865Z,89.61
2023-02-14T18:38:52.657Z,89.31
2023-02-14T18:41:23.554Z,89.82
2023-02-14T18:43:53.082Z,90.12
2023-02-14T18:46:23.473Z,89.46
2023-02-14T18:48:52.461Z,89.36
2023-02-14T18:51:26.157Z,89.38
2023-02-14T18:53:56.273Z,88.96
2023-02-14T18:56:28.684Z,89.54
2023-02-14T18:58:59.187Z,88.94
2023-02-14T19:01:30.485Z,90.09
2023-02-14T19:04:01.236Z,88.92
2023-02-14T19:06:31.922Z,89.52
2023-02-14T19:09:01.345Z,89.06
2023-02-14T19:11:32.775Z,88.70
2023-02-14T19:14:02.683Z,89.10
2023-02-14T19:16:34.024Z,90.18
2023-02-14T19:19:03.059Z,88.73
2023-02-14T19:21:33.574Z,89.90
2023-02-14T19:24:03.928Z,88.33
2023-02-14T19:26:34.985Z,88.92
2023-02-14T19:29:06.855Z,89.03
2023-02-14T19:31:36.486Z,88.58
2023-02-14T19:34:06.228Z,89.41
2023-02-14T19:36:36.309Z,89.90
2023-02-14T19:39:07.972Z,89.43
2023-02-14T19:41:37.809Z,88.80
2023-02-14T19:44:08.380Z,88.81
2023-02-14T19:46:38.193Z,88.77
2023-02-14T19:49:06.894Z,88.54
2023-02-14T19:51:36.948Z,88.80
2023-02-14T19:54:09.701Z,88.45
2023-02-14T19:56:41.545Z,89.62
2023-02-14T19:59:11.057Z,90.22
2023-02-14T20:01:41.967Z,88.62
2023-02-14T20:04:14.599Z,89.80
2023-02-14T20:06:44.823Z,89.43
2023-02-14T20:09:13.648Z,88.68
2023-02-14T20:11:50.016Z,89.31
2023-02-14T20:14:20.287Z,88.24
2023-02-14T20:16:49.523Z,89.79
2023-02-14T20:19:20.403Z,88.40
2023-02-14T20:21:50.943Z,88.62
2023-02-14T20:24:21.328Z,89.80
2023-02-14T20:26:51.715Z,90.00
2023-02-14T20:29:22.599Z,88.43
2023-02-14T20:31:52.961Z,88.60
2023-02-14T20:34:22.086Z,88.62
2023-02-14T20:36:53.272Z,89.77
2023-02-14T20:39:24.412Z,88.58
2023-02-14T20:41:54.428Z,89.10
2023-02-14T20:44:23.588Z,89.31
2023-02-14T20:46:53.635Z,89.96
2023-02-14T20:49:23.977Z,89.50
2023-02-14T20:51:52.851Z,89.00
2023-02-14T20:54:22.893Z,89.42
2023-02-14T20:56:51.625Z,88.99
2023-02-14T20:59:26.737Z,89.77
2023-02-14T21:01:55.876Z,88.89
2023-02-14T21:04:25.501Z,90.46
2023-02-14T21:06:54.446Z,90.70
2023-02-14T21:09:23.036Z,90.79
2023-02-14T21:11:53.746Z,89.02
2023-02-14T21:14:23.674Z,90.56
2023-02-14T21:16:52.294Z,90.16
2023-02-14T21:19:20.935Z,90.48
2023-02-14T21:21:49.334Z,89.48
2023-02-14T21:24:18.443Z,89.25
2023-02-14T21:26:46.979Z,90.55
2023-02-14T21:29:15.483Z,89.13
2023-02-14T21:31:45.400Z,90.80
2023-02-14T21:34:16.116Z,89.22
2023-02-14T21:36:44.844Z,90.81
2023-02-14T21:39:13.606Z,90.67
2023-02-14T21:41:42.288Z,90.18
2023-02-14T21:44:31.215Z,89.50
2023-02-14T21:47:00.927Z,90.74
2023-02-14T21:49:46.894Z,89.11
2023-02-14T21:52:15.333Z,89.79
2023-02-14T21:54:43.979Z,90.23
2023-02-14T21:57:12.414Z,89.94
2023-02-14T21:59:41.676Z,89.96
2023-02-14T22:02:13.126Z,90.61
2023-02-14T22:04:43.133Z,89.19
2023-02-14T22:07:11.595Z,88.94
2023-02-14T22:09:40.118Z,88.95
2023-02-14T22:12:09.030Z,90.01
2023-02-14T22:14:37.573Z,90.62
2023-02-14T22:17:06.038Z,90.65
2023-02-14T22:19:36.728Z,90.21
2023-02-14T22:22:05.477Z,89.89
2023-02-14T22:24:33.900Z,90.27
2023-02-14T22:27:02.378Z,89.14
2023-02-14T22:29:30.907Z,89.39
2023-02-14T22:31:59.484Z,90.39
2023-02-14T22:34:28.069Z,89.79
2023-02-14T22:36:57.844Z,90.39
2023-02-14T22:39:26.299Z,90.13
2023-02-14T22:41:54.820Z,89.26
2023-02-14T22:44:23.323Z,90.28
2023-02-14T22:46:51.867Z,89.55
2023-02-14T22:49:20.304Z,89.80
2023-02-14T22:51:48.794Z,89.54
2023-02-14T22:54:18.775Z,90.45
2023-02-14T22:56:49.032Z,90.03
2023-02-14T22:59:19.462Z,90.48
2023-02-14T23:01:48.637Z,90.83
2023-02-14T23:04:18.790Z,89.96
2023-02-14T23:06:47.211Z,90.00
2023-02-14T23:09:17.687Z,89.85
2023-02-14T23:11:47.387Z,90.99
2023-02-14T23:14:35.255Z,90.29
2023-02-14T23:17:21.277Z,90.75
2023-02-14T23:20:07.220Z,91.50
2023-02-14T23:22:38.185Z,91.71
2023-02-14T23:25:10.862Z,90.37
2023-02-14T23:27:40.920Z,90.48
2023-02-14T23:30:14.181Z,90.26
2023-02-14T23:32:43.043Z,89.82
2023-02-14T23:35:11.614Z,90.42
2023-02-14T23:37:40.228Z,90.08
2023-02-14T23:40:10.989Z,90.89
2023-02-14T23:42:39.505Z,90.44
2023-02-14T23:45:26.428Z,90.70
2023-02-14T23:47:54.964Z,90.90
2023-02-14T23:50:23.384Z,90.35
2023-02-14T23:52:51.849Z,91.08
2023-02-14T23:55:21.711Z,91.20
2023-02-14T23:57:50.167Z,91.67
